createdAt,value
2022-11-09T00:01:41.977Z,1.92
2022-11-09T00:04:09.335Z,1.90
2022-11-09T00:06:36.604Z,1.40
2022-11-09T00:09:07.894Z,1.60
2022-11-09T00:14:02.145Z,1.88
2022-11-09T00:16:28.757Z,2.00
2022-11-09T00:18:55.951Z,1.83
2022-11-09T00:21:24.256Z,1.60
2022-11-09T00:23:51.664Z,1.70
2022-11-09T00:26:19.683Z,1.70
2022-11-09T00:28:46.595Z,1.85
2022-11-09T00:31:19.412Z,1.63
2022-11-09T00:33:54.148Z,2.10
2022-11-09T00:36:22.182Z,1.50
2022-11-09T00:38:50.903Z,1.60
2022-11-09T00:41:18.142Z,1.67
2022-11-09T00:43:45.147Z,1.83
2022-11-09T00:46:12.491Z,1.35
2022-11-09T00:48:39.654Z,1.52
2022-11-09T00:51:06.677Z,1.77
2022-11-09T00:53:33.610Z,1.48
2022-11-09T00:56:02.926Z,2.55
2022-11-09T00:58:32.595Z,2.00
2022-11-09T01:01:04.889Z,1.50
2022-11-09T01:03:31.684Z,1.60
2022-11-09T01:06:00.626Z,1.60
2022-11-09T01:08:27.319Z,1.70
2022-11-09T01:10:54.018Z,1.60
2022-11-09T01:13:23.018Z,1.90
2022-11-09T01:15:52.308Z,1.65
2022-11-09T01:18:20.587Z,1.60
2022-11-09T01:20:48.757Z,1.85
2022-11-09T01:23:17.363Z,1.98
2022-11-09T01:25:44.542Z,1.77
2022-11-09T01:28:12.019Z,1.40
2022-11-09T01:30:42.745Z,1.70
2022-11-09T01:33:11.291Z,1.77
2022-11-09T01:35:39.539Z,1.80
2022-11-09T01:38:07.131Z,1.75
2022-11-09T01:40:35.528Z,2.23
2022-11-09T01:43:22.916Z,1.38
2022-11-09T01:46:03.050Z,1.50
2022-11-09T01:48:38.718Z,1.42
2022-11-09T01:51:25.988Z,1.40
2022-11-09T01:54:06.331Z,1.40
2022-11-09T01:56:33.395Z,1.73
2022-11-09T01:59:05.581Z,1.40
2022-11-09T02:01:33.575Z,1.92
2022-11-09T02:04:20.023Z,2.65
2022-11-09T02:06:47.671Z,1.38
2022-11-09T02:09:26.110Z,1.40
2022-11-09T02:11:52.871Z,1.63
2022-11-09T02:14:22.680Z,1.50
2022-11-09T02:16:50.214Z,1.45
2022-11-09T02:19:16.917Z,2.30
2022-11-09T02:21:43.649Z,1.95
2022-11-09T02:24:10.384Z,1.77
2022-11-09T02:26:51.946Z,1.80
2022-11-09T02:29:43.894Z,1.33
2022-11-09T02:34:40.389Z,2.08
2022-11-09T02:37:07.373Z,1.52
2022-11-09T02:39:34.824Z,1.58
2022-11-09T02:42:19.942Z,2.00
2022-11-09T02:44:52.513Z,2.08
2022-11-09T02:47:19.122Z,1.52
2022-11-09T02:49:47.422Z,1.83
2022-11-09T02:52:14.129Z,2.45
2022-11-09T02:54:40.763Z,1.98
2022-11-09T02:57:07.425Z,1.80
2022-11-09T02:59:34.410Z,1.77
2022-11-09T03:02:03.790Z,1.90
2022-11-09T03:04:31.098Z,1.77
2022-11-09T03:06:58.197Z,1.70
2022-11-09T03:09:25.608Z,1.50
2022-11-09T03:11:52.272Z,1.70
2022-11-09T03:14:20.060Z,1.70
2022-11-09T03:16:51.346Z,1.75
2022-11-09T03:19:19.005Z,2.05
2022-11-09T03:21:47.876Z,1.95
2022-11-09T03:24:14.554Z,1.77
2022-11-09T03:26:42.189Z,1.77
2022-11-09T03:29:09.267Z,1.67
2022-11-09T03:31:36.537Z,1.45
2022-11-09T03:34:06.393Z,1.77
2022-11-09T03:36:35.384Z,1.67
2022-11-09T03:39:02.079Z,1.65
2022-11-09T03:41:28.697Z,1.88
2022-11-09T03:43:55.331Z,2.10
2022-11-09T03:46:21.936Z,1.48
2022-11-09T03:48:48.649Z,2.20
2022-11-09T03:51:15.270Z,2.00
2022-11-09T03:53:41.901Z,1.85
2022-11-09T03:56:08.598Z,2.35
2022-11-09T03:58:35.222Z,2.15
2022-11-09T04:01:01.939Z,1.75
2022-11-09T04:03:28.672Z,1.70
2022-11-09T04:05:57.686Z,1.90
2022-11-09T04:08:24.293Z,1.85
2022-11-09T04:10:50.914Z,2.13
2022-11-09T04:13:17.887Z,2.00
2022-11-09T04:15:44.807Z,1.27
2022-11-09T04:18:14.424Z,1.70
2022-11-09T04:20:41.430Z,1.75
2022-11-09T04:23:11.005Z,1.70
2022-11-09T04:25:39.018Z,1.80
2022-11-09T04:28:07.939Z,1.33
2022-11-09T04:30:36.369Z,1.52
2022-11-09T04:33:03.743Z,1.70
2022-11-09T04:35:32.152Z,2.00
2022-11-09T04:38:01.531Z,1.30
2022-11-09T04:40:30.274Z,1.85
2022-11-09T04:43:00.676Z,1.88
2022-11-09T04:45:27.581Z,2.08
2022-11-09T04:47:58.955Z,2.83
2022-11-09T04:50:26.079Z,2.20
2022-11-09T04:52:52.873Z,2.00
2022-11-09T04:55:19.557Z,2.88
2022-11-09T04:57:46.187Z,1.98
2022-11-09T05:00:13.213Z,1.83
2022-11-09T05:02:39.813Z,1.55
2022-11-09T05:05:07.058Z,1.98
2022-11-09T05:07:33.809Z,1.67
2022-11-09T05:10:00.408Z,2.55
2022-11-09T05:12:27.009Z,1.30
2022-11-09T05:14:53.625Z,2.42
2022-11-09T05:17:20.204Z,2.10
2022-11-09T05:19:46.833Z,1.95
2022-11-09T05:22:32.491Z,1.77
2022-11-09T05:24:59.094Z,1.73
2022-11-09T05:27:25.706Z,2.65
2022-11-09T05:29:52.326Z,2.13
2022-11-09T05:32:18.988Z,2.20
2022-11-09T05:34:45.587Z,2.13
2022-11-09T05:37:12.613Z,1.85
2022-11-09T05:39:39.333Z,2.53
2022-11-09T05:42:05.969Z,1.88
2022-11-09T05:44:32.569Z,2.60
2022-11-09T05:46:59.224Z,1.75
2022-11-09T05:49:25.829Z,1.88
2022-11-09T05:51:52.889Z,1.88
2022-11-09T05:54:19.483Z,1.60
2022-11-09T05:56:46.269Z,3.00
2022-11-09T05:59:12.996Z,1.77
2022-11-09T06:01:39.746Z,1.73
2022-11-09T06:04:06.420Z,1.63
2022-11-09T06:06:33.059Z,2.28
2022-11-09T06:08:59.724Z,1.70
2022-11-09T06:11:26.472Z,1.77
2022-11-09T06:13:53.103Z,2.13
2022-11-09T06:16:19.855Z,1.92
2022-11-09T06:18:46.637Z,1.83
2022-11-09T06:21:13.315Z,1.67
2022-11-09T06:23:40.081Z,1.55
2022-11-09T06:26:09.960Z,1.60
2022-11-09T06:28:38.203Z,1.40
2022-11-09T06:31:07.247Z,2.25
2022-11-09T06:33:35.418Z,2.85
2022-11-09T06:36:03.032Z,2.28
2022-11-09T06:38:30.036Z,1.50
2022-11-09T06:40:58.855Z,2.10
2022-11-09T06:43:26.248Z,1.45
2022-11-09T06:45:53.746Z,2.00
2022-11-09T06:48:21.408Z,2.20
2022-11-09T06:50:48.221Z,5.20
2022-11-09T06:53:16.565Z,5.00
2022-11-09T06:55:47.366Z,8.57
2022-11-09T06:58:17.077Z,2.50
2022-11-09T07:00:44.722Z,2.13
2022-11-09T07:03:20.065Z,2.83
2022-11-09T07:05:47.748Z,1.95
2022-11-09T07:08:15.081Z,1.95
2022-11-09T07:10:42.047Z,2.00
2022-11-09T07:13:09.578Z,2.58
2022-11-09T07:15:37.645Z,2.85
2022-11-09T07:18:06.668Z,1.65
2022-11-09T07:20:34.132Z,3.25
2022-11-09T07:23:00.751Z,2.15
2022-11-09T07:25:27.525Z,2.42
2022-11-09T07:27:54.377Z,2.40
2022-11-09T07:30:21.222Z,2.10
2022-11-09T07:33:08.605Z,2.10
2022-11-09T07:35:34.476Z,2.05
2022-11-09T07:38:01.659Z,2.45
2022-11-09T07:40:29.542Z,1.55
2022-11-09T07:43:00.682Z,2.30
2022-11-09T07:45:29.125Z,2.20
2022-11-09T07:48:00.458Z,1.80
2022-11-09T07:50:29.259Z,1.75
2022-11-09T07:52:56.991Z,1.88
2022-11-09T07:55:24.944Z,1.50
2022-11-09T07:58:01.454Z,1.83
2022-11-09T08:00:31.115Z,1.38
2022-11-09T08:02:57.842Z,1.63
2022-11-09T08:05:24.835Z,1.70
2022-11-09T08:07:58.853Z,1.65
2022-11-09T08:10:27.214Z,1.95
2022-11-09T08:13:11.609Z,1.75
2022-11-09T08:15:39.190Z,1.88
2022-11-09T08:18:21.843Z,1.70
2022-11-09T08:20:49.697Z,1.58
2022-11-09T08:23:19.335Z,1.20
2022-11-09T08:25:46.021Z,1.33
2022-11-09T08:28:14.946Z,1.55
2022-11-09T08:30:44.296Z,1.70
2022-11-09T08:33:13.037Z,1.90
2022-11-09T08:35:39.725Z,1.77
2022-11-09T08:38:06.385Z,1.30
2022-11-09T08:40:33.680Z,2.08
2022-11-09T08:43:06.159Z,1.52
2022-11-09T08:45:34.914Z,1.85
2022-11-09T08:48:01.958Z,1.85
2022-11-09T08:50:30.285Z,1.60
2022-11-09T08:52:57.254Z,2.22
2022-11-09T08:55:24.504Z,2.08
2022-11-09T08:57:54.896Z,2.28
2022-11-09T09:00:21.676Z,2.47
2022-11-09T09:02:48.897Z,1.77
2022-11-09T09:05:16.125Z,1.88
2022-11-09T09:07:43.112Z,2.17
2022-11-09T09:10:10.113Z,1.90
2022-11-09T09:12:37.476Z,3.05
2022-11-09T09:15:04.803Z,2.35
2022-11-09T09:17:31.820Z,1.95
2022-11-09T09:19:58.449Z,2.17
2022-11-09T09:22:25.098Z,2.83
2022-11-09T09:24:51.685Z,2.10
2022-11-09T09:27:18.540Z,1.85
2022-11-09T09:29:45.255Z,2.25
2022-11-09T09:32:11.851Z,1.90
2022-11-09T09:34:38.441Z,1.45
2022-11-09T09:37:05.263Z,1.63
2022-11-09T09:39:31.976Z,1.80
2022-11-09T09:42:01.588Z,1.55
2022-11-09T09:44:40.232Z,2.10
2022-11-09T09:47:14.164Z,1.70
2022-11-09T09:49:46.583Z,1.92
2022-11-09T09:52:26.193Z,2.13
2022-11-09T09:55:00.920Z,1.77
2022-11-09T09:57:30.279Z,2.17
2022-11-09T10:00:01.161Z,1.85
2022-11-09T10:02:35.951Z,2.33
2022-11-09T10:05:08.024Z,2.35
2022-11-09T10:07:48.306Z,2.30
2022-11-09T10:10:39.823Z,1.95
2022-11-09T10:13:22.214Z,2.72
2022-11-09T10:16:19.147Z,1.88
2022-11-09T10:18:55.100Z,2.58
2022-11-09T10:21:48.396Z,1.25
2022-11-09T10:24:48.732Z,1.70
2022-11-09T10:27:30.080Z,2.35
2022-11-09T10:29:59.028Z,1.90
2022-11-09T10:32:31.406Z,1.80
2022-11-09T10:35:15.149Z,1.90
2022-11-09T10:37:46.369Z,1.52
2022-11-09T10:40:30.389Z,2.35
2022-11-09T10:43:15.789Z,2.97
2022-11-09T10:46:06.788Z,1.77
2022-11-09T10:48:54.081Z,1.30
2022-11-09T10:51:42.372Z,1.58
2022-11-09T10:54:37.526Z,1.30
2022-11-09T10:57:24.656Z,1.92
2022-11-09T11:00:17.800Z,1.30
2022-11-09T11:03:11.962Z,1.50
2022-11-09T11:05:59.583Z,1.42
2022-11-09T11:08:53.359Z,1.52
2022-11-09T11:11:40.099Z,1.60
2022-11-09T11:14:41.618Z,1.45
2022-11-09T11:17:34.731Z,1.60
2022-11-09T11:20:31.945Z,1.67
2022-11-09T11:23:20.238Z,1.90
2022-11-09T11:26:19.216Z,1.65
2022-11-09T11:29:28.160Z,1.60
2022-11-09T11:32:18.542Z,1.40
2022-11-09T11:35:11.735Z,1.80
2022-11-09T11:38:11.141Z,2.00
2022-11-09T11:41:23.897Z,1.85
2022-11-09T11:44:21.085Z,1.67
2022-11-09T11:47:20.548Z,2.20
2022-11-09T11:50:28.594Z,1.88
2022-11-09T11:53:19.685Z,2.55
2022-11-09T11:56:11.218Z,1.73
2022-11-09T11:59:28.354Z,2.22
2022-11-09T12:02:43.508Z,2.90
2022-11-09T12:05:44.525Z,1.90
2022-11-09T12:08:45.600Z,2.95
2022-11-09T12:11:46.227Z,2.27
2022-11-09T12:14:45.093Z,2.78
2022-11-09T12:17:30.519Z,1.60
2022-11-09T12:20:19.025Z,1.65
2022-11-09T12:23:25.006Z,2.05
2022-11-09T12:26:39.012Z,1.58
2022-11-09T12:29:33.525Z,2.25
2022-11-09T12:32:55.683Z,1.88
2022-11-09T12:39:08.949Z,1.90
2022-11-09T12:41:59.472Z,1.58
2022-11-09T12:45:22.559Z,1.92
2022-11-09T12:48:16.775Z,1.45
2022-11-09T12:51:04.653Z,2.72
2022-11-09T12:53:50.044Z,1.48
2022-11-09T12:56:40.874Z,1.90
2022-11-09T12:59:29.148Z,1.60
2022-11-09T13:02:32.880Z,1.83
2022-11-09T13:05:35.267Z,2.30
2022-11-09T13:08:26.252Z,1.65
2022-11-09T13:11:25.686Z,2.00
2022-11-09T13:14:23.434Z,1.77
2022-11-09T13:17:21.665Z,2.20
2022-11-09T13:24:00.104Z,1.58
2022-11-09T13:26:46.334Z,2.08
2022-11-09T13:33:09.498Z,2.40
2022-11-09T13:35:56.267Z,1.63
2022-11-09T13:38:41.451Z,1.95
2022-11-09T13:41:29.916Z,1.30
2022-11-09T13:44:24.144Z,1.55
2022-11-09T13:47:36.517Z,1.45
2022-11-09T13:50:25.240Z,1.90
2022-11-09T13:53:39.124Z,1.60
2022-11-09T13:56:30.327Z,1.90
2022-11-09T13:59:46.782Z,2.60
2022-11-09T14:02:31.944Z,1.77
2022-11-09T14:05:25.606Z,1.90
2022-11-09T14:08:28.513Z,1.77
2022-11-09T14:11:19.496Z,1.60
2022-11-09T14:14:33.563Z,1.63
2022-11-09T14:17:41.438Z,1.77
2022-11-09T14:21:08.377Z,2.00
2022-11-09T14:23:54.208Z,1.73
2022-11-09T14:26:39.418Z,1.70
2022-11-09T14:29:26.263Z,2.08
2022-11-09T14:32:37.004Z,2.45
2022-11-09T14:35:36.932Z,1.52
2022-11-09T14:38:25.956Z,2.13
2022-11-09T14:41:23.109Z,3.55
2022-11-09T14:44:21.180Z,2.17
2022-11-09T14:47:32.300Z,1.88
2022-11-09T14:50:31.336Z,2.25
2022-11-09T14:53:22.278Z,2.10
2022-11-09T14:56:10.667Z,1.95
2022-11-09T14:58:57.270Z,2.10
2022-11-09T15:02:05.375Z,1.92
2022-11-09T15:04:59.040Z,1.42
2022-11-09T15:07:48.023Z,1.38
2022-11-09T15:10:33.946Z,2.08
2022-11-09T15:13:27.754Z,1.60
2022-11-09T15:16:26.172Z,1.58
2022-11-09T15:19:36.918Z,1.73
2022-11-09T15:22:41.183Z,1.52
2022-11-09T15:25:43.421Z,1.50
2022-11-09T15:28:30.946Z,1.42
2022-11-09T15:31:18.717Z,1.40
2022-11-09T15:34:21.639Z,1.60
2022-11-09T15:37:30.168Z,1.50
2022-11-09T15:40:22.098Z,2.08
2022-11-09T15:43:07.693Z,1.70
2022-11-09T15:45:54.863Z,2.22
2022-11-09T15:48:45.597Z,3.35
2022-11-09T15:51:31.358Z,2.03
2022-11-09T15:54:16.752Z,1.88
2022-11-09T15:57:01.903Z,1.65
2022-11-09T15:59:49.303Z,1.98
2022-11-09T16:02:34.480Z,2.05
2022-11-09T16:05:19.798Z,3.10
2022-11-09T16:08:07.466Z,2.08
2022-11-09T16:10:52.710Z,2.00
2022-11-09T16:13:38.300Z,1.92
2022-11-09T16:16:23.700Z,2.33
2022-11-09T16:19:13.824Z,2.17
2022-11-09T16:22:02.053Z,1.98
2022-11-09T16:24:48.247Z,2.40
2022-11-09T16:27:49.580Z,2.20
2022-11-09T16:30:36.193Z,2.38
2022-11-09T16:33:21.568Z,1.92
2022-11-09T16:36:13.488Z,2.10
2022-11-09T16:39:03.914Z,2.38
2022-11-09T16:41:50.913Z,2.72
2022-11-09T16:44:38.791Z,2.40
2022-11-09T16:47:24.451Z,1.98
2022-11-09T16:50:10.266Z,2.33
2022-11-09T16:52:55.458Z,2.67
2022-11-09T16:55:40.795Z,2.53
2022-11-09T16:58:26.381Z,2.00
2022-11-09T17:01:13.306Z,1.92
2022-11-09T17:03:59.679Z,2.30
2022-11-09T17:06:45.180Z,2.00
2022-11-09T17:09:34.349Z,1.85
2022-11-09T17:12:19.816Z,1.77
2022-11-09T17:15:06.004Z,1.50
2022-11-09T17:17:51.278Z,3.42
2022-11-09T17:20:47.737Z,4.63
2022-11-09T17:23:33.733Z,2.53
2022-11-09T17:26:19.977Z,1.50
2022-11-09T17:29:05.966Z,1.67
2022-11-09T17:31:51.287Z,2.30
2022-11-09T17:34:37.131Z,1.70
2022-11-09T17:37:22.762Z,2.67
2022-11-09T17:40:08.409Z,2.50
2022-11-09T17:42:54.036Z,1.83
2022-11-09T17:45:39.378Z,1.90
2022-11-09T17:48:24.979Z,7.95
2022-11-09T17:51:11.793Z,1.92
2022-11-09T17:53:57.833Z,2.10
2022-11-09T17:56:43.198Z,2.03
2022-11-09T17:59:28.625Z,2.75
2022-11-09T18:02:15.341Z,5.18
2022-11-09T18:05:00.852Z,2.95
2022-11-09T18:07:46.504Z,2.45
2022-11-09T18:10:32.211Z,3.40
2022-11-09T18:13:18.579Z,2.35
2022-11-09T18:16:17.305Z,1.73
2022-11-09T18:19:04.010Z,1.50
2022-11-09T18:21:49.301Z,2.00
2022-11-09T18:24:36.392Z,1.95
2022-11-09T18:27:25.974Z,2.38
2022-11-09T18:30:15.945Z,2.20
2022-11-09T18:33:01.337Z,2.90
2022-11-09T18:35:56.060Z,2.70
2022-11-09T18:38:43.058Z,2.95
2022-11-09T18:41:28.859Z,2.60
2022-11-09T18:44:14.066Z,2.20
2022-11-09T18:47:05.092Z,2.40
2022-11-09T18:49:52.286Z,2.60
2022-11-09T18:52:37.666Z,2.10
2022-11-09T18:55:23.264Z,2.22
2022-11-09T18:58:08.338Z,2.58
2022-11-09T19:01:02.090Z,2.38
2022-11-09T19:03:47.399Z,2.63
2022-11-09T19:06:35.187Z,1.92
2022-11-09T19:09:29.796Z,2.22
2022-11-09T19:12:15.557Z,2.38
2022-11-09T19:15:01.481Z,2.25
2022-11-09T19:17:46.945Z,1.95
2022-11-09T19:20:32.587Z,2.30
2022-11-09T19:23:17.684Z,2.85
2022-11-09T19:26:03.193Z,2.03
2022-11-09T19:28:48.566Z,2.08
2022-11-09T19:31:34.511Z,2.28
2022-11-09T19:34:21.196Z,2.10
2022-11-09T19:37:06.323Z,3.13
2022-11-09T19:39:51.695Z,3.33
2022-11-09T19:42:36.849Z,3.17
2022-11-09T19:45:22.484Z,2.90
2022-11-09T19:48:08.002Z,2.65
2022-11-09T19:50:53.268Z,3.17
2022-11-09T19:53:42.321Z,4.18
2022-11-09T19:56:30.269Z,3.03
2022-11-09T19:59:16.891Z,2.88
2022-11-09T20:02:02.369Z,2.38
2022-11-09T20:04:49.395Z,2.83
2022-11-09T20:07:34.946Z,2.58
2022-11-09T20:10:21.317Z,2.80
2022-11-09T20:13:07.260Z,2.95
2022-11-09T20:15:52.683Z,3.78
2022-11-09T20:18:39.170Z,3.30
2022-11-09T20:21:24.940Z,3.35
2022-11-09T20:24:14.955Z,2.80
2022-11-09T20:27:00.342Z,2.88
2022-11-09T20:29:45.661Z,3.13
2022-11-09T20:32:31.201Z,3.03
2022-11-09T20:35:16.621Z,2.90
2022-11-09T20:38:02.497Z,3.40
2022-11-09T20:41:09.640Z,2.80
2022-11-09T20:43:54.886Z,2.50
2022-11-09T20:46:40.441Z,3.40
2022-11-09T20:49:25.989Z,2.75
2022-11-09T20:52:11.523Z,2.65
2022-11-09T20:54:56.523Z,2.33
2022-11-09T20:57:41.924Z,2.33
2022-11-09T21:00:27.551Z,3.42
2022-11-09T21:03:12.750Z,2.80
2022-11-09T21:06:01.640Z,2.80
2022-11-09T21:08:49.924Z,2.67
2022-11-09T21:11:36.268Z,3.25
2022-11-09T21:14:21.634Z,2.92
2022-11-09T21:17:06.825Z,3.15
2022-11-09T21:19:52.351Z,2.97
2022-11-09T21:22:56.333Z,3.45
2022-11-09T21:26:02.544Z,3.03
2022-11-09T21:29:06.861Z,3.42
2022-11-09T21:31:52.355Z,3.50
2022-11-09T21:34:38.355Z,3.35
2022-11-09T21:37:23.693Z,3.22
2022-11-09T21:40:09.632Z,3.40
2022-11-09T21:42:55.754Z,3.75
2022-11-09T21:45:41.375Z,2.95
2022-11-09T21:48:27.121Z,3.25
2022-11-09T21:51:12.305Z,4.40
2022-11-09T21:53:58.116Z,4.72
2022-11-09T21:56:43.501Z,4.18
2022-11-09T21:59:29.127Z,4.35
2022-11-09T22:02:14.117Z,3.67
2022-11-09T22:04:59.465Z,4.25
2022-11-09T22:07:44.687Z,3.83
2022-11-09T22:10:30.124Z,4.20
2022-11-09T22:13:34.603Z,4.03
2022-11-09T22:16:21.432Z,3.60
2022-11-09T22:19:25.496Z,3.97
2022-11-09T22:22:11.019Z,3.88
2022-11-09T22:24:56.710Z,3.72
2022-11-09T22:27:42.119Z,4.03
2022-11-09T22:30:27.762Z,3.67
2022-11-09T22:33:14.442Z,3.47
2022-11-09T22:36:05.128Z,4.15
2022-11-09T22:38:50.997Z,3.38
2022-11-09T22:41:36.561Z,3.50
2022-11-09T22:44:21.670Z,3.58
2022-11-09T22:47:06.950Z,3.95
2022-11-09T22:49:51.970Z,3.33
2022-11-09T22:52:37.347Z,4.53
2022-11-09T22:55:23.680Z,3.70
2022-11-09T22:58:08.995Z,3.45
2022-11-09T23:00:54.898Z,3.53
2022-11-09T23:03:40.326Z,3.40
2022-11-09T23:06:25.959Z,4.18
2022-11-09T23:09:11.228Z,3.80
2022-11-09T23:11:56.561Z,3.03
2022-11-09T23:15:00.430Z,4.63
2022-11-09T23:18:04.261Z,3.72
2022-11-09T23:20:49.475Z,3.78
2022-11-09T23:23:36.023Z,3.60
2022-11-09T23:26:22.910Z,3.47
2022-11-09T23:29:08.224Z,4.25
2022-11-09T23:31:53.588Z,3.20
2022-11-09T23:34:38.897Z,3.08
2022-11-09T23:37:24.188Z,3.63
2022-11-09T23:40:10.041Z,3.03
2022-11-09T23:43:09.930Z,2.72
2022-11-09T23:45:57.000Z,3.60
2022-11-09T23:48:42.130Z,3.95
2022-11-09T23:51:27.608Z,3.25
2022-11-09T23:54:12.996Z,4.03
2022-11-09T23:56:58.046Z,3.78
2022-11-09T23:59:43.426Z,3.15
